sensor_id;sensor_type;location;lat;lon;timestamp;P1;durP1;ratioP1;P2;durP2;ratioP2
15012;SDS011;7603;49.432;11.418;2023-02-13T00:01:58;1.00;;;1.00;;
15012;SDS011;7603;49.432;11.418;2023-02-13T00:04:23;1.43;;;1.33;;
15012;SDS011;7603;49.432;11.418;2023-02-13T00:06:49;1.60;;;1.50;;
15012;SDS011;7603;49.432;11.418;2023-02-13T00:09:15;0.97;;;0.97;;
15012;SDS011;7603;49.432;11.418;2023-02-13T00:11:40;1.10;;;1.10;;
15012;SDS011;7603;49.432;11.418;2023-02-13T00:14:06;1.53;;;1.33;;
15012;SDS011;7603;49.432;11.418;2023-02-13T00:16:32;1.30;;;1.30;;
15012;SDS011;7603;49.432;11.418;2023-02-13T00:18:58;1.30;;;1.30;;
15012;SDS011;7603;49.432;11.418;2023-02-13T00:21:23;10.50;;;4.10;;
15012;SDS011;7603;49.432;11.418;2023-02-13T00:23:49;6.10;;;2.60;;
15012;SDS011;7603;49.432;11.418;2023-02-13T00:26:15;1.47;;;1.47;;
15012;SDS011;7603;49.432;11.418;2023-02-13T00:28:41;1.30;;;1.30;;
15012;SDS011;7603;49.432;11.418;2023-02-13T00:31:12;2.37;;;1.80;;
15012;SDS011;7603;49.432;11.418;2023-02-13T00:33:39;1.30;;;1.20;;
15012;SDS011;7603;49.432;11.418;2023-02-13T00:36:06;1.87;;;1.60;;
15012;SDS011;7603;49.432;11.418;2023-02-13T00:38:34;1.30;;;1.30;;
15012;SDS011;7603;49.432;11.418;2023-02-13T00:41:00;1.20;;;1.20;;
15012;SDS011;7603;49.432;11.418;2023-02-13T00:43:26;0.97;;;0.97;;
15012;SDS011;7603;49.432;11.418;2023-02-13T00:45:51;4.33;;;2.20;;
15012;SDS011;7603;49.432;11.418;2023-02-13T00:48:17;1.10;;;1.10;;
15012;SDS011;7603;49.432;11.418;2023-02-13T00:50:43;1.87;;;1.77;;
15012;SDS011;7603;49.432;11.418;2023-02-13T00:53:10;2.57;;;1.63;;
15012;SDS011;7603;49.432;11.418;2023-02-13T00:55:35;1.10;;;1.10;;
15012;SDS011;7603;49.432;11.418;2023-02-13T00:58:01;1.33;;;1.33;;
15012;SDS011;7603;49.432;11.418;2023-02-13T01:00:26;1.07;;;1.07;;
15012;SDS011;7603;49.432;11.418;2023-02-13T01:02:52;1.80;;;1.70;;
15012;SDS011;7603;49.432;11.418;2023-02-13T01:05:18;1.23;;;1.23;;
15012;SDS011;7603;49.432;11.418;2023-02-13T01:07:44;1.37;;;1.33;;
15012;SDS011;7603;49.432;11.418;2023-02-13T01:10:09;1.90;;;1.80;;
15012;SDS011;7603;49.432;11.418;2023-02-13T01:12:35;1.43;;;1.33;;
15012;SDS011;7603;49.432;11.418;2023-02-13T01:15:01;1.43;;;1.43;;
15012;SDS011;7603;49.432;11.418;2023-02-13T01:17:27;1.57;;;1.47;;
15012;SDS011;7603;49.432;11.418;2023-02-13T01:19:53;1.53;;;1.53;;
15012;SDS011;7603;49.432;11.418;2023-02-13T01:22:18;3.83;;;1.70;;
15012;SDS011;7603;49.432;11.418;2023-02-13T01:24:44;1.30;;;1.27;;
15012;SDS011;7603;49.432;11.418;2023-02-13T01:27:10;1.20;;;1.20;;
15012;SDS011;7603;49.432;11.418;2023-02-13T01:29:35;1.33;;;1.33;;
15012;SDS011;7603;49.432;11.418;2023-02-13T01:32:01;1.80;;;1.63;;
15012;SDS011;7603;49.432;11.418;2023-02-13T01:34:29;1.40;;;1.40;;
15012;SDS011;7603;49.432;11.418;2023-02-13T01:36:55;1.30;;;1.30;;
15012;SDS011;7603;49.432;11.418;2023-02-13T01:39:21;1.67;;;1.57;;
15012;SDS011;7603;49.432;11.418;2023-02-13T01:41:46;1.17;;;1.17;;
15012;SDS011;7603;49.432;11.418;2023-02-13T01:47:15;2.00;;;1.67;;
15012;SDS011;7603;49.432;11.418;2023-02-13T01:50:38;3.87;;;1.70;;
15012;SDS011;7603;49.432;11.418;2023-02-13T01:53:09;1.20;;;1.20;;
15012;SDS011;7603;49.432;11.418;2023-02-13T01:55:41;1.50;;;1.40;;
15012;SDS011;7603;49.432;11.418;2023-02-13T01:58:30;2.53;;;1.97;;
15012;SDS011;7603;49.432;11.418;2023-02-13T02:00:58;1.77;;;1.67;;
15012;SDS011;7603;49.432;11.418;2023-02-13T02:05:57;1.73;;;1.63;;
15012;SDS011;7603;49.432;11.418;2023-02-13T02:08:24;2.63;;;2.43;;
15012;SDS011;7603;49.432;11.418;2023-02-13T02:10:50;1.37;;;1.37;;
15012;SDS011;7603;49.432;11.418;2023-02-13T02:13:17;1.97;;;1.57;;
15012;SDS011;7603;49.432;11.418;2023-02-13T02:15:45;1.97;;;1.87;;
15012;SDS011;7603;49.432;11.418;2023-02-13T02:18:13;1.60;;;1.23;;
15012;SDS011;7603;49.432;11.418;2023-02-13T02:21:08;3.03;;;2.17;;
15012;SDS011;7603;49.432;11.418;2023-02-13T02:32:22;2.83;;;2.63;;
15012;SDS011;7603;49.432;11.418;2023-02-13T02:35:21;1.40;;;1.40;;
15012;SDS011;7603;49.432;11.418;2023-02-13T02:46:38;1.53;;;1.40;;
15012;SDS011;7603;49.432;11.418;2023-02-13T02:49:36;1.60;;;1.50;;
15012;SDS011;7603;49.432;11.418;2023-02-13T02:52:27;1.33;;;1.27;;
15012;SDS011;7603;49.432;11.418;2023-02-13T02:57:59;3.90;;;2.17;;
15012;SDS011;7603;49.432;11.418;2023-02-13T03:00:51;2.00;;;1.33;;
15012;SDS011;7603;49.432;11.418;2023-02-13T03:03:37;1.97;;;1.83;;
15012;SDS011;7603;49.432;11.418;2023-02-13T03:06:26;1.80;;;1.70;;
15012;SDS011;7603;49.432;11.418;2023-02-13T03:09:00;1.77;;;1.67;;
15012;SDS011;7603;49.432;11.418;2023-02-13T03:11:48;1.87;;;1.77;;
15012;SDS011;7603;49.432;11.418;2023-02-13T03:14:34;1.93;;;1.83;;
15012;SDS011;7603;49.432;11.418;2023-02-13T03:17:00;1.70;;;1.70;;
15012;SDS011;7603;49.432;11.418;2023-02-13T03:22:52;2.40;;;2.30;;
15012;SDS011;7603;49.432;11.418;2023-02-13T03:25:34;3.17;;;2.27;;
15012;SDS011;7603;49.432;11.418;2023-02-13T03:34:05;1.50;;;1.50;;
15012;SDS011;7603;49.432;11.418;2023-02-13T03:47:52;1.70;;;1.50;;
15012;SDS011;7603;49.432;11.418;2023-02-13T03:50:21;1.70;;;1.60;;
15012;SDS011;7603;49.432;11.418;2023-02-13T03:53:05;1.67;;;1.57;;
15012;SDS011;7603;49.432;11.418;2023-02-13T03:55:35;1.93;;;1.83;;
15012;SDS011;7603;49.432;11.418;2023-02-13T03:58:25;1.10;;;1.10;;
15012;SDS011;7603;49.432;11.418;2023-02-13T04:01:25;2.37;;;2.17;;
15012;SDS011;7603;49.432;11.418;2023-02-13T04:04:19;1.97;;;1.87;;
15012;SDS011;7603;49.432;11.418;2023-02-13T04:07:03;2.10;;;2.00;;
15012;SDS011;7603;49.432;11.418;2023-02-13T04:09:53;1.93;;;1.83;;
15012;SDS011;7603;49.432;11.418;2023-02-13T04:12:20;4.90;;;2.30;;
15012;SDS011;7603;49.432;11.418;2023-02-13T04:15:03;2.70;;;2.53;;
15012;SDS011;7603;49.432;11.418;2023-02-13T04:17:44;1.67;;;1.57;;
15012;SDS011;7603;49.432;11.418;2023-02-13T04:20:17;1.80;;;1.70;;
15012;SDS011;7603;49.432;11.418;2023-02-13T04:22:46;1.70;;;1.60;;
15012;SDS011;7603;49.432;11.418;2023-02-13T04:25:13;3.80;;;2.00;;
15012;SDS011;7603;49.432;11.418;2023-02-13T04:27:39;3.10;;;2.00;;
15012;SDS011;7603;49.432;11.418;2023-02-13T04:30:05;5.37;;;2.77;;
15012;SDS011;7603;49.432;11.418;2023-02-13T04:32:32;2.80;;;1.87;;
15012;SDS011;7603;49.432;11.418;2023-02-13T04:34:57;2.97;;;2.57;;
15012;SDS011;7603;49.432;11.418;2023-02-13T04:37:23;5.93;;;2.47;;
15012;SDS011;7603;49.432;11.418;2023-02-13T04:39:48;6.90;;;2.93;;
15012;SDS011;7603;49.432;11.418;2023-02-13T04:42:14;1.87;;;1.77;;
15012;SDS011;7603;49.432;11.418;2023-02-13T04:44:39;8.63;;;2.63;;
15012;SDS011;7603;49.432;11.418;2023-02-13T04:47:05;15.70;;;3.67;;
15012;SDS011;7603;49.432;11.418;2023-02-13T04:49:30;4.47;;;2.63;;
15012;SDS011;7603;49.432;11.418;2023-02-13T04:51:56;13.30;;;2.27;;
15012;SDS011;7603;49.432;11.418;2023-02-13T04:54:22;7.30;;;2.87;;
15012;SDS011;7603;49.432;11.418;2023-02-13T04:56:47;1.87;;;1.77;;
15012;SDS011;7603;49.432;11.418;2023-02-13T04:59:13;12.70;;;3.97;;
15012;SDS011;7603;49.432;11.418;2023-02-13T05:01:38;4.37;;;3.97;;
15012;SDS011;7603;49.432;11.418;2023-02-13T05:04:04;11.03;;;3.87;;
15012;SDS011;7603;49.432;11.418;2023-02-13T05:06:29;5.30;;;3.67;;
15012;SDS011;7603;49.432;11.418;2023-02-13T05:08:55;3.07;;;2.17;;
15012;SDS011;7603;49.432;11.418;2023-02-13T05:11:21;4.13;;;3.47;;
15012;SDS011;7603;49.432;11.418;2023-02-13T05:13:46;6.05;;;3.30;;
15012;SDS011;7603;49.432;11.418;2023-02-13T05:16:12;3.03;;;2.03;;
15012;SDS011;7603;49.432;11.418;2023-02-13T05:18:37;4.27;;;2.57;;
15012;SDS011;7603;49.432;11.418;2023-02-13T05:21:03;2.23;;;2.10;;
15012;SDS011;7603;49.432;11.418;2023-02-13T05:23:47;4.93;;;2.30;;
15012;SDS011;7603;49.432;11.418;2023-02-13T05:26:12;3.23;;;2.13;;
15012;SDS011;7603;49.432;11.418;2023-02-13T05:28:38;2.33;;;1.97;;
15012;SDS011;7603;49.432;11.418;2023-02-13T05:31:22;4.30;;;2.83;;
15012;SDS011;7603;49.432;11.418;2023-02-13T05:33:48;2.17;;;1.53;;
15012;SDS011;7603;49.432;11.418;2023-02-13T05:36:13;1.60;;;1.60;;
15012;SDS011;7603;49.432;11.418;2023-02-13T05:38:39;3.70;;;2.47;;
15012;SDS011;7603;49.432;11.418;2023-02-13T05:41:05;16.40;;;2.47;;
15012;SDS011;7603;49.432;11.418;2023-02-13T05:43:31;5.20;;;2.23;;
15012;SDS011;7603;49.432;11.418;2023-02-13T05:46:03;1.30;;;1.30;;
15012;SDS011;7603;49.432;11.418;2023-02-13T05:48:30;2.03;;;1.93;;
15012;SDS011;7603;49.432;11.418;2023-02-13T05:50:56;1.87;;;1.77;;
15012;SDS011;7603;49.432;11.418;2023-02-13T05:53:22;1.93;;;1.83;;
15012;SDS011;7603;49.432;11.418;2023-02-13T05:55:47;3.50;;;2.60;;
15012;SDS011;7603;49.432;11.418;2023-02-13T05:58:16;4.73;;;2.87;;
15012;SDS011;7603;49.432;11.418;2023-02-13T06:00:42;2.53;;;2.43;;
15012;SDS011;7603;49.432;11.418;2023-02-13T06:03:08;5.93;;;3.47;;
15012;SDS011;7603;49.432;11.418;2023-02-13T06:05:33;2.80;;;2.60;;
15012;SDS011;7603;49.432;11.418;2023-02-13T06:07:59;3.67;;;2.87;;
15012;SDS011;7603;49.432;11.418;2023-02-13T06:10:24;2.13;;;2.03;;
15012;SDS011;7603;49.432;11.418;2023-02-13T06:12:50;2.00;;;1.63;;
15012;SDS011;7603;49.432;11.418;2023-02-13T06:15:15;8.77;;;3.60;;
15012;SDS011;7603;49.432;11.418;2023-02-13T06:17:41;3.03;;;2.73;;
15012;SDS011;7603;49.432;11.418;2023-02-13T06:20:07;7.33;;;2.73;;
15012;SDS011;7603;49.432;11.418;2023-02-13T06:22:33;2.67;;;1.80;;
15012;SDS011;7603;49.432;11.418;2023-02-13T06:24:58;3.53;;;2.57;;
15012;SDS011;7603;49.432;11.418;2023-02-13T06:27:24;3.00;;;2.70;;
15012;SDS011;7603;49.432;11.418;2023-02-13T06:29:50;2.40;;;2.30;;
15012;SDS011;7603;49.432;11.418;2023-02-13T06:32:15;3.27;;;2.47;;
15012;SDS011;7603;49.432;11.418;2023-02-13T06:34:41;2.40;;;2.20;;
15012;SDS011;7603;49.432;11.418;2023-02-13T06:37:06;2.20;;;2.10;;
15012;SDS011;7603;49.432;11.418;2023-02-13T06:39:32;2.00;;;1.80;;
15012;SDS011;7603;49.432;11.418;2023-02-13T06:41:58;3.03;;;2.47;;
15012;SDS011;7603;49.432;11.418;2023-02-13T06:44:24;3.13;;;2.30;;
15012;SDS011;7603;49.432;11.418;2023-02-13T06:46:49;2.73;;;2.53;;
15012;SDS011;7603;49.432;11.418;2023-02-13T06:49:15;5.30;;;2.60;;
15012;SDS011;7603;49.432;11.418;2023-02-13T06:51:40;3.47;;;2.33;;
15012;SDS011;7603;49.432;11.418;2023-02-13T06:54:06;3.93;;;2.83;;
15012;SDS011;7603;49.432;11.418;2023-02-13T06:56:31;6.33;;;2.97;;
15012;SDS011;7603;49.432;11.418;2023-02-13T06:58:57;3.80;;;2.37;;
15012;SDS011;7603;49.432;11.418;2023-02-13T07:01:22;4.10;;;2.83;;
15012;SDS011;7603;49.432;11.418;2023-02-13T07:03:48;6.50;;;4.03;;
15012;SDS011;7603;49.432;11.418;2023-02-13T07:06:17;3.17;;;2.97;;
15012;SDS011;7603;49.432;11.418;2023-02-13T07:08:44;4.93;;;3.57;;
15012;SDS011;7603;49.432;11.418;2023-02-13T07:11:19;3.73;;;2.80;;
15012;SDS011;7603;49.432;11.418;2023-02-13T07:13:45;3.50;;;3.00;;
15012;SDS011;7603;49.432;11.418;2023-02-13T07:16:11;7.30;;;3.93;;
15012;SDS011;7603;49.432;11.418;2023-02-13T07:18:37;3.03;;;2.73;;
15012;SDS011;7603;49.432;11.418;2023-02-13T07:21:03;2.40;;;2.00;;
15012;SDS011;7603;49.432;11.418;2023-02-13T07:23:28;4.53;;;4.13;;
15012;SDS011;7603;49.432;11.418;2023-02-13T07:25:54;3.37;;;3.13;;
15012;SDS011;7603;49.432;11.418;2023-02-13T07:28:22;2.60;;;2.40;;
15012;SDS011;7603;49.432;11.418;2023-02-13T07:30:47;7.57;;;3.57;;
15012;SDS011;7603;49.432;11.418;2023-02-13T07:33:13;12.03;;;4.77;;
15012;SDS011;7603;49.432;11.418;2023-02-13T07:35:38;7.63;;;5.03;;
15012;SDS011;7603;49.432;11.418;2023-02-13T07:38:09;3.03;;;2.93;;
15012;SDS011;7603;49.432;11.418;2023-02-13T07:40:35;3.43;;;3.13;;
15012;SDS011;7603;49.432;11.418;2023-02-13T07:43:00;4.80;;;3.50;;
15012;SDS011;7603;49.432;11.418;2023-02-13T07:45:26;9.10;;;3.30;;
15012;SDS011;7603;49.432;11.418;2023-02-13T07:47:53;6.70;;;3.10;;
15012;SDS011;7603;49.432;11.418;2023-02-13T07:50:20;4.13;;;2.83;;
15012;SDS011;7603;49.432;11.418;2023-02-13T07:52:52;3.83;;;2.73;;
15012;SDS011;7603;49.432;11.418;2023-02-13T07:55:22;4.83;;;4.27;;
15012;SDS011;7603;49.432;11.418;2023-02-13T07:57:48;5.40;;;4.90;;
15012;SDS011;7603;49.432;11.418;2023-02-13T08:00:14;6.60;;;4.73;;
15012;SDS011;7603;49.432;11.418;2023-02-13T08:02:40;4.77;;;2.70;;
15012;SDS011;7603;49.432;11.418;2023-02-13T08:05:06;7.50;;;3.97;;
15012;SDS011;7603;49.432;11.418;2023-02-13T08:07:32;4.00;;;3.70;;
15012;SDS011;7603;49.432;11.418;2023-02-13T08:09:57;4.20;;;3.00;;
15012;SDS011;7603;49.432;11.418;2023-02-13T08:12:41;4.23;;;3.07;;
15012;SDS011;7603;49.432;11.418;2023-02-13T08:15:08;4.73;;;3.93;;
15012;SDS011;7603;49.432;11.418;2023-02-13T08:17:36;4.10;;;3.30;;
15012;SDS011;7603;49.432;11.418;2023-02-13T08:20:03;13.07;;;4.27;;
15012;SDS011;7603;49.432;11.418;2023-02-13T08:22:33;5.83;;;4.13;;
15012;SDS011;7603;49.432;11.418;2023-02-13T08:25:00;11.77;;;4.37;;
15012;SDS011;7603;49.432;11.418;2023-02-13T08:27:26;10.37;;;4.77;;
15012;SDS011;7603;49.432;11.418;2023-02-13T08:29:54;7.93;;;4.13;;
15012;SDS011;7603;49.432;11.418;2023-02-13T08:32:20;7.23;;;4.30;;
15012;SDS011;7603;49.432;11.418;2023-02-13T08:34:45;5.67;;;3.80;;
15012;SDS011;7603;49.432;11.418;2023-02-13T08:37:11;11.37;;;4.93;;
15012;SDS011;7603;49.432;11.418;2023-02-13T08:39:37;11.87;;;4.73;;
15012;SDS011;7603;49.432;11.418;2023-02-13T08:42:02;6.60;;;4.40;;
15012;SDS011;7603;49.432;11.418;2023-02-13T08:44:28;9.50;;;3.93;;
15012;SDS011;7603;49.432;11.418;2023-02-13T08:46:53;8.65;;;4.47;;
15012;SDS011;7603;49.432;11.418;2023-02-13T08:49:20;7.25;;;4.32;;
15012;SDS011;7603;49.432;11.418;2023-02-13T08:51:45;14.23;;;4.40;;
15012;SDS011;7603;49.432;11.418;2023-02-13T08:54:11;14.27;;;5.40;;
15012;SDS011;7603;49.432;11.418;2023-02-13T08:56:37;8.95;;;4.20;;
15012;SDS011;7603;49.432;11.418;2023-02-13T08:59:02;6.32;;;4.18;;
15012;SDS011;7603;49.432;11.418;2023-02-13T09:01:28;17.15;;;8.15;;
15012;SDS011;7603;49.432;11.418;2023-02-13T09:03:54;13.75;;;7.68;;
15012;SDS011;7603;49.432;11.418;2023-02-13T09:06:19;4.60;;;4.18;;
15012;SDS011;7603;49.432;11.418;2023-02-13T09:08:45;13.73;;;5.32;;
15012;SDS011;7603;49.432;11.418;2023-02-13T09:11:11;16.83;;;6.15;;
15012;SDS011;7603;49.432;11.418;2023-02-13T09:13:37;9.73;;;5.15;;
15012;SDS011;7603;49.432;11.418;2023-02-13T09:16:04;7.82;;;4.50;;
15012;SDS011;7603;49.432;11.418;2023-02-13T09:18:32;9.85;;;5.22;;
15012;SDS011;7603;49.432;11.418;2023-02-13T09:20:59;11.38;;;5.32;;
15012;SDS011;7603;49.432;11.418;2023-02-13T09:23:32;6.85;;;4.90;;
15012;SDS011;7603;49.432;11.418;2023-02-13T09:26:00;10.13;;;4.95;;
15012;SDS011;7603;49.432;11.418;2023-02-13T09:28:26;11.32;;;4.55;;
15012;SDS011;7603;49.432;11.418;2023-02-13T09:30:53;8.25;;;3.90;;
15012;SDS011;7603;49.432;11.418;2023-02-13T09:33:18;5.18;;;3.40;;
15012;SDS011;7603;49.432;11.418;2023-02-13T09:35:44;4.60;;;3.63;;
15012;SDS011;7603;49.432;11.418;2023-02-13T09:38:10;6.15;;;3.45;;
15012;SDS011;7603;49.432;11.418;2023-02-13T09:40:38;7.30;;;4.78;;
15012;SDS011;7603;49.432;11.418;2023-02-13T09:43:17;5.00;;;3.97;;
15012;SDS011;7603;49.432;11.418;2023-02-13T09:45:57;9.15;;;4.75;;
15012;SDS011;7603;49.432;11.418;2023-02-13T09:48:29;6.38;;;4.32;;
15012;SDS011;7603;49.432;11.418;2023-02-13T09:50:57;5.75;;;4.00;;
15012;SDS011;7603;49.432;11.418;2023-02-13T09:53:23;3.78;;;2.65;;
15012;SDS011;7603;49.432;11.418;2023-02-13T09:58:25;2.97;;;2.33;;
15012;SDS011;7603;49.432;11.418;2023-02-13T10:01:03;2.65;;;2.30;;
15012;SDS011;7603;49.432;11.418;2023-02-13T10:06:25;2.38;;;1.90;;
15012;SDS011;7603;49.432;11.418;2023-02-13T10:09:16;2.20;;;1.98;;
15012;SDS011;7603;49.432;11.418;2023-02-13T10:12:10;1.92;;;1.83;;
15012;SDS011;7603;49.432;11.418;2023-02-13T10:20:38;3.80;;;2.00;;
15012;SDS011;7603;49.432;11.418;2023-02-13T10:26:20;3.88;;;2.63;;
15012;SDS011;7603;49.432;11.418;2023-02-13T10:29:07;1.63;;;1.52;;
15012;SDS011;7603;49.432;11.418;2023-02-13T10:31:55;4.93;;;2.30;;
15012;SDS011;7603;49.432;11.418;2023-02-13T10:34:26;2.00;;;1.80;;
15012;SDS011;7603;49.432;11.418;2023-02-13T10:36:55;2.63;;;2.42;;
15012;SDS011;7603;49.432;11.418;2023-02-13T10:39:23;2.33;;;2.13;;
15012;SDS011;7603;49.432;11.418;2023-02-13T10:58:14;1.98;;;1.77;;
15012;SDS011;7603;49.432;11.418;2023-02-13T11:03:16;2.17;;;1.98;;
15012;SDS011;7603;49.432;11.418;2023-02-13T11:05:43;2.33;;;1.88;;
15012;SDS011;7603;49.432;11.418;2023-02-13T11:08:15;1.85;;;1.75;;
15012;SDS011;7603;49.432;11.418;2023-02-13T11:10:45;2.60;;;2.10;;
15012;SDS011;7603;49.432;11.418;2023-02-13T11:13:14;2.10;;;1.90;;
15012;SDS011;7603;49.432;11.418;2023-02-13T11:15:55;2.22;;;2.03;;
15012;SDS011;7603;49.432;11.418;2023-02-13T11:18:21;2.00;;;1.90;;
15012;SDS011;7603;49.432;11.418;2023-02-13T11:20:57;1.85;;;1.75;;
15012;SDS011;7603;49.432;11.418;2023-02-13T11:23:32;2.30;;;2.10;;
15012;SDS011;7603;49.432;11.418;2023-02-13T11:28:44;2.50;;;1.70;;
15012;SDS011;7603;49.432;11.418;2023-02-13T11:31:28;1.52;;;1.42;;
15012;SDS011;7603;49.432;11.418;2023-02-13T11:33:56;2.10;;;1.90;;
15012;SDS011;7603;49.432;11.418;2023-02-13T11:39:01;2.60;;;2.08;;
15012;SDS011;7603;49.432;11.418;2023-02-13T11:41:27;1.80;;;1.60;;
15012;SDS011;7603;49.432;11.418;2023-02-13T11:43:55;2.00;;;1.80;;
15012;SDS011;7603;49.432;11.418;2023-02-13T11:46:29;2.53;;;2.10;;
15012;SDS011;7603;49.432;11.418;2023-02-13T11:49:20;2.33;;;1.70;;
15012;SDS011;7603;49.432;11.418;2023-02-13T11:51:52;2.10;;;1.77;;
15012;SDS011;7603;49.432;11.418;2023-02-13T11:56:55;1.80;;;1.70;;
15012;SDS011;7603;49.432;11.418;2023-02-13T11:59:40;2.05;;;1.95;;
15012;SDS011;7603;49.432;11.418;2023-02-13T12:04:33;1.83;;;1.73;;
15012;SDS011;7603;49.432;11.418;2023-02-13T12:07:00;3.20;;;1.60;;
15012;SDS011;7603;49.432;11.418;2023-02-13T12:09:29;1.52;;;1.42;;
15012;SDS011;7603;49.432;11.418;2023-02-13T12:11:59;1.80;;;1.70;;
15012;SDS011;7603;49.432;11.418;2023-02-13T12:14:32;1.83;;;1.70;;
15012;SDS011;7603;49.432;11.418;2023-02-13T12:17:06;3.03;;;2.17;;
15012;SDS011;7603;49.432;11.418;2023-02-13T12:36:20;2.65;;;2.45;;
15012;SDS011;7603;49.432;11.418;2023-02-13T12:41:38;2.70;;;2.22;;
15012;SDS011;7603;49.432;11.418;2023-02-13T12:44:37;2.13;;;1.95;;
15012;SDS011;7603;49.432;11.418;2023-02-13T12:47:25;1.70;;;1.60;;
15012;SDS011;7603;49.432;11.418;2023-02-13T12:55:24;2.22;;;2.13;;
15012;SDS011;7603;49.432;11.418;2023-02-13T13:01:19;1.88;;;1.77;;
15012;SDS011;7603;49.432;11.418;2023-02-13T13:12:23;1.90;;;1.80;;
15012;SDS011;7603;49.432;11.418;2023-02-13T13:17:31;2.00;;;1.90;;
15012;SDS011;7603;49.432;11.418;2023-02-13T13:22:53;1.65;;;1.55;;
15012;SDS011;7603;49.432;11.418;2023-02-13T13:25:24;2.55;;;2.15;;
15012;SDS011;7603;49.432;11.418;2023-02-13T13:28:01;2.28;;;2.10;;
15012;SDS011;7603;49.432;11.418;2023-02-13T13:30:32;1.85;;;1.75;;
15012;SDS011;7603;49.432;11.418;2023-02-13T13:35:41;1.55;;;1.33;;
15012;SDS011;7603;49.432;11.418;2023-02-13T13:38:40;1.88;;;1.77;;
15012;SDS011;7603;49.432;11.418;2023-02-13T13:44:20;1.70;;;1.60;;
15012;SDS011;7603;49.432;11.418;2023-02-13T13:47:14;2.17;;;2.08;;
15012;SDS011;7603;49.432;11.418;2023-02-13T13:49:56;1.65;;;1.55;;
15012;SDS011;7603;49.432;11.418;2023-02-13T13:54:50;1.73;;;1.63;;
15012;SDS011;7603;49.432;11.418;2023-02-13T13:57:25;2.65;;;2.45;;
15012;SDS011;7603;49.432;11.418;2023-02-13T13:59:57;2.00;;;1.90;;
15012;SDS011;7603;49.432;11.418;2023-02-13T14:02:36;2.10;;;1.90;;
15012;SDS011;7603;49.432;11.418;2023-02-13T14:10:57;1.92;;;1.80;;
15012;SDS011;7603;49.432;11.418;2023-02-13T14:13:35;2.17;;;2.08;;
15012;SDS011;7603;49.432;11.418;2023-02-13T14:16:03;1.80;;;1.70;;
15012;SDS011;7603;49.432;11.418;2023-02-13T14:18:30;2.15;;;2.05;;
15012;SDS011;7603;49.432;11.418;2023-02-13T14:20:57;1.77;;;1.67;;
15012;SDS011;7603;49.432;11.418;2023-02-13T14:26:10;2.10;;;2.00;;
15012;SDS011;7603;49.432;11.418;2023-02-13T14:31:21;2.15;;;2.03;;
15012;SDS011;7603;49.432;11.418;2023-02-13T14:36:25;1.95;;;1.85;;
15012;SDS011;7603;49.432;11.418;2023-02-13T14:38:56;1.95;;;1.85;;
15012;SDS011;7603;49.432;11.418;2023-02-13T14:46:49;2.17;;;1.98;;
15012;SDS011;7603;49.432;11.418;2023-02-13T14:49:27;2.15;;;2.05;;
15012;SDS011;7603;49.432;11.418;2023-02-13T14:52:05;2.10;;;1.98;;
15012;SDS011;7603;49.432;11.418;2023-02-13T14:54:48;2.15;;;2.05;;
15012;SDS011;7603;49.432;11.418;2023-02-13T14:57:33;1.77;;;1.67;;
15012;SDS011;7603;49.432;11.418;2023-02-13T15:02:57;2.15;;;1.98;;
15012;SDS011;7603;49.432;11.418;2023-02-13T15:05:31;1.90;;;1.80;;
15012;SDS011;7603;49.432;11.418;2023-02-13T15:08:06;1.98;;;1.85;;
15012;SDS011;7603;49.432;11.418;2023-02-13T15:10:44;2.90;;;2.70;;
15012;SDS011;7603;49.432;11.418;2023-02-13T15:13:22;1.75;;;1.65;;
15012;SDS011;7603;49.432;11.418;2023-02-13T15:15:54;1.83;;;1.70;;
15012;SDS011;7603;49.432;11.418;2023-02-13T15:18:31;2.08;;;1.88;;
15012;SDS011;7603;49.432;11.418;2023-02-13T15:21:01;2.00;;;1.80;;
15012;SDS011;7603;49.432;11.418;2023-02-13T15:23:28;2.75;;;1.73;;
15012;SDS011;7603;49.432;11.418;2023-02-13T15:26:03;2.20;;;2.10;;
15012;SDS011;7603;49.432;11.418;2023-02-13T15:28:30;2.13;;;1.95;;
15012;SDS011;7603;49.432;11.418;2023-02-13T15:31:01;10.50;;;4.13;;
15012;SDS011;7603;49.432;11.418;2023-02-13T15:33:33;2.70;;;1.80;;
15012;SDS011;7603;49.432;11.418;2023-02-13T15:36:16;1.70;;;1.60;;
15012;SDS011;7603;49.432;11.418;2023-02-13T15:38:44;1.80;;;1.70;;
15012;SDS011;7603;49.432;11.418;2023-02-13T15:43:48;2.42;;;2.22;;
15012;SDS011;7603;49.432;11.418;2023-02-13T15:48:45;1.73;;;1.63;;
15012;SDS011;7603;49.432;11.418;2023-02-13T15:51:18;2.40;;;1.88;;
15012;SDS011;7603;49.432;11.418;2023-02-13T15:56:16;1.50;;;1.40;;
15012;SDS011;7603;49.432;11.418;2023-02-13T15:58:42;3.30;;;2.97;;
15012;SDS011;7603;49.432;11.418;2023-02-13T16:01:07;2.20;;;2.03;;
15012;SDS011;7603;49.432;11.418;2023-02-13T16:03:34;2.25;;;2.15;;
15012;SDS011;7603;49.432;11.418;2023-02-13T16:06:01;1.85;;;1.70;;
15012;SDS011;7603;49.432;11.418;2023-02-13T16:08:34;1.90;;;1.77;;
15012;SDS011;7603;49.432;11.418;2023-02-13T16:13:52;2.10;;;1.80;;
15012;SDS011;7603;49.432;11.418;2023-02-13T16:16:58;2.08;;;1.92;;
15012;SDS011;7603;49.432;11.418;2023-02-13T16:22:00;2.47;;;1.73;;
15012;SDS011;7603;49.432;11.418;2023-02-13T16:24:38;3.08;;;2.22;;
15012;SDS011;7603;49.432;11.418;2023-02-13T16:27:10;3.55;;;2.33;;
15012;SDS011;7603;49.432;11.418;2023-02-13T16:29:38;4.80;;;2.28;;
15012;SDS011;7603;49.432;11.418;2023-02-13T16:32:21;3.85;;;2.28;;
15012;SDS011;7603;49.432;11.418;2023-02-13T16:34:50;2.65;;;2.45;;
15012;SDS011;7603;49.432;11.418;2023-02-13T16:37:28;2.72;;;2.45;;
15012;SDS011;7603;49.432;11.418;2023-02-13T16:40:15;2.05;;;1.92;;
15012;SDS011;7603;49.432;11.418;2023-02-13T16:48:40;3.22;;;2.28;;
15012;SDS011;7603;49.432;11.418;2023-02-13T16:51:08;2.63;;;2.42;;
15012;SDS011;7603;49.432;11.418;2023-02-13T16:53:34;2.75;;;2.50;;
15012;SDS011;7603;49.432;11.418;2023-02-13T16:56:00;3.05;;;2.75;;
15012;SDS011;7603;49.432;11.418;2023-02-13T16:58:30;3.65;;;2.38;;
15012;SDS011;7603;49.432;11.418;2023-02-13T17:00:55;3.42;;;3.13;;
15012;SDS011;7603;49.432;11.418;2023-02-13T17:03:21;5.78;;;3.95;;
15012;SDS011;7603;49.432;11.418;2023-02-13T17:05:47;3.42;;;2.95;;
15012;SDS011;7603;49.432;11.418;2023-02-13T17:08:12;6.45;;;4.28;;
15012;SDS011;7603;49.432;11.418;2023-02-13T17:10:38;5.18;;;3.22;;
15012;SDS011;7603;49.432;11.418;2023-02-13T17:15:40;5.70;;;3.40;;
15012;SDS011;7603;49.432;11.418;2023-02-13T17:18:07;3.55;;;2.97;;
15012;SDS011;7603;49.432;11.418;2023-02-13T17:20:33;4.32;;;3.33;;
15012;SDS011;7603;49.432;11.418;2023-02-13T17:23:01;3.78;;;2.83;;
15012;SDS011;7603;49.432;11.418;2023-02-13T17:25:30;4.30;;;3.90;;
15012;SDS011;7603;49.432;11.418;2023-02-13T17:28:10;5.22;;;3.45;;
15012;SDS011;7603;49.432;11.418;2023-02-13T17:30:38;3.97;;;3.53;;
15012;SDS011;7603;49.432;11.418;2023-02-13T17:33:05;3.78;;;3.28;;
15012;SDS011;7603;49.432;11.418;2023-02-13T17:35:35;5.47;;;3.92;;
15012;SDS011;7603;49.432;11.418;2023-02-13T17:38:01;4.63;;;3.40;;
15012;SDS011;7603;49.432;11.418;2023-02-13T17:40:27;3.55;;;3.25;;
15012;SDS011;7603;49.432;11.418;2023-02-13T17:42:55;4.67;;;3.43;;
15012;SDS011;7603;49.432;11.418;2023-02-13T17:45:23;4.13;;;3.27;;
15012;SDS011;7603;49.432;11.418;2023-02-13T17:47:51;5.53;;;3.87;;
15012;SDS011;7603;49.432;11.418;2023-02-13T17:50:17;6.10;;;3.53;;
15012;SDS011;7603;49.432;11.418;2023-02-13T17:52:43;3.17;;;2.87;;
15012;SDS011;7603;49.432;11.418;2023-02-13T17:55:17;3.57;;;3.20;;
15012;SDS011;7603;49.432;11.418;2023-02-13T17:57:46;4.10;;;3.10;;
15012;SDS011;7603;49.432;11.418;2023-02-13T18:00:12;3.50;;;3.20;;
15012;SDS011;7603;49.432;11.418;2023-02-13T18:02:39;4.50;;;3.17;;
15012;SDS011;7603;49.432;11.418;2023-02-13T18:05:06;5.00;;;2.63;;
15012;SDS011;7603;49.432;11.418;2023-02-13T18:07:33;2.93;;;2.73;;
15012;SDS011;7603;49.432;11.418;2023-02-13T18:09:58;3.00;;;2.77;;
15012;SDS011;7603;49.432;11.418;2023-02-13T18:12:24;4.73;;;3.20;;